createdAt,value
2023-03-06T00:01:48.775Z,11.43
2023-03-06T00:04:51.444Z,13.02
2023-03-06T00:07:53.613Z,9.95
2023-03-06T00:10:56.645Z,11.07
2023-03-06T00:13:58.871Z,12.17
2023-03-06T00:17:01.288Z,10.52
2023-03-06T00:20:04.995Z,11.55
2023-03-06T00:23:08.579Z,10.35
2023-03-06T00:26:10.827Z,13.93
2023-03-06T00:29:14.304Z,13.60
2023-03-06T00:32:16.512Z,14.02
2023-03-06T00:35:19.144Z,11.18
2023-03-06T00:38:21.308Z,12.45
2023-03-06T00:41:24.998Z,11.12
2023-03-06T00:44:27.138Z,12.45
2023-03-06T00:47:30.085Z,13.55
2023-03-06T00:50:35.088Z,12.70
2023-03-06T00:53:37.557Z,10.57
2023-03-06T00:56:39.830Z,12.98
2023-03-06T00:59:42.461Z,11.18
2023-03-06T01:02:44.637Z,12.18
2023-03-06T01:05:47.050Z,11.52
2023-03-06T01:08:49.260Z,11.20
2023-03-06T01:14:54.847Z,10.95
2023-03-06T01:17:57.305Z,10.48
2023-03-06T01:20:59.430Z,10.13
2023-03-06T01:24:02.076Z,8.93
2023-03-06T01:27:04.249Z,11.82
2023-03-06T01:30:07.359Z,12.75
2023-03-06T01:33:09.570Z,8.67
2023-03-06T01:36:12.797Z,10.88
2023-03-06T01:39:14.960Z,9.53
2023-03-06T01:42:17.393Z,11.00
2023-03-06T01:45:19.447Z,12.63
2023-03-06T01:48:24.068Z,9.85
2023-03-06T01:51:32.016Z,10.70
2023-03-06T01:54:40.394Z,10.32
2023-03-06T01:57:45.273Z,10.27
2023-03-06T02:00:47.894Z,8.63
2023-03-06T02:03:51.290Z,10.20
2023-03-06T02:06:55.040Z,11.95
2023-03-06T02:09:58.388Z,10.52
2023-03-06T02:13:00.950Z,9.50
2023-03-06T02:16:03.707Z,8.32
2023-03-06T02:19:08.968Z,12.87
2023-03-06T02:22:11.611Z,9.95
2023-03-06T02:25:33.896Z,11.43
2023-03-06T02:28:36.230Z,10.40
2023-03-06T02:31:38.669Z,9.77
2023-03-06T02:34:54.917Z,10.43
2023-03-06T02:38:02.441Z,8.52
2023-03-06T02:41:08.266Z,13.57
2023-03-06T02:44:10.717Z,7.18
2023-03-06T02:47:12.993Z,9.93
2023-03-06T02:50:15.510Z,9.07
2023-03-06T02:53:19.602Z,8.07
2023-03-06T02:56:22.462Z,9.05
2023-03-06T02:59:24.853Z,9.50
2023-03-06T03:02:27.894Z,8.40
2023-03-06T03:05:30.521Z,10.02
2023-03-06T03:08:34.705Z,9.88
2023-03-06T03:11:37.229Z,11.77
2023-03-06T03:14:40.057Z,10.38
2023-03-06T03:17:42.727Z,10.18
2023-03-06T03:20:45.160Z,9.82
2023-03-06T03:23:47.327Z,9.98
2023-03-06T03:26:49.922Z,8.10
2023-03-06T03:29:53.014Z,9.52
2023-03-06T03:32:55.579Z,9.07
2023-03-06T03:35:58.985Z,8.48
2023-03-06T03:39:02.010Z,11.05
2023-03-06T03:42:04.453Z,9.50
2023-03-06T03:45:07.790Z,8.38
2023-03-06T03:48:10.114Z,9.90
2023-03-06T03:51:16.435Z,9.88
2023-03-06T03:54:19.378Z,11.32
2023-03-06T03:57:22.456Z,10.55
2023-03-06T04:00:25.585Z,11.68
2023-03-06T04:06:31.418Z,9.25
2023-03-06T04:09:34.321Z,8.88
2023-03-06T04:12:37.241Z,8.88
2023-03-06T04:15:39.744Z,9.05
2023-03-06T04:18:42.439Z,11.45
2023-03-06T04:21:45.084Z,8.23
2023-03-06T04:24:49.822Z,9.15
2023-03-06T04:27:52.745Z,12.52
2023-03-06T04:30:54.984Z,10.20
2023-03-06T04:33:58.146Z,9.30
2023-03-06T04:37:00.808Z,11.48
2023-03-06T04:40:04.203Z,8.35
2023-03-06T04:43:06.543Z,11.57
2023-03-06T04:46:10.945Z,12.90
2023-03-06T04:49:13.144Z,10.93
2023-03-06T04:52:15.600Z,11.82
2023-03-06T04:55:18.762Z,13.45
2023-03-06T04:58:21.307Z,13.52
2023-03-06T05:01:23.538Z,11.93
2023-03-06T05:04:26.039Z,11.07
2023-03-06T05:07:28.352Z,14.00
2023-03-06T05:10:30.800Z,11.68
2023-03-06T05:13:33.385Z,14.75
2023-03-06T05:16:35.956Z,13.70
2023-03-06T05:19:38.416Z,12.50
2023-03-06T05:22:41.746Z,12.83
2023-03-06T05:25:44.044Z,13.68
2023-03-06T05:28:46.564Z,12.57
2023-03-06T05:31:48.824Z,12.43
2023-03-06T05:34:51.537Z,14.30
2023-03-06T05:37:53.827Z,14.40
2023-03-06T05:40:56.603Z,15.47
2023-03-06T05:43:59.058Z,15.52
2023-03-06T05:47:02.468Z,10.37
2023-03-06T05:50:05.509Z,13.70
2023-03-06T05:53:08.064Z,12.18
2023-03-06T05:56:10.626Z,13.32
2023-03-06T05:59:13.117Z,12.80
2023-03-06T06:02:15.949Z,14.25
2023-03-06T06:05:18.535Z,14.48
2023-03-06T06:08:21.163Z,13.13
2023-03-06T06:11:23.652Z,11.32
2023-03-06T06:14:26.167Z,11.88
2023-03-06T06:17:28.716Z,14.30
2023-03-06T06:20:30.837Z,11.82
2023-03-06T06:23:33.385Z,11.85
2023-03-06T06:26:35.577Z,13.95
2023-03-06T06:29:38.068Z,13.32
2023-03-06T06:32:40.653Z,20.40
2023-03-06T06:35:43.236Z,12.02
2023-03-06T06:38:46.317Z,12.82
2023-03-06T06:42:02.617Z,15.20
2023-03-06T06:45:12.799Z,15.00
2023-03-06T06:48:16.691Z,12.20
2023-03-06T06:51:20.843Z,11.55
2023-03-06T06:54:23.411Z,10.15
2023-03-06T06:57:25.697Z,13.95
2023-03-06T07:00:28.577Z,12.10
2023-03-06T07:03:30.852Z,13.32
2023-03-06T07:06:33.570Z,14.43
2023-03-06T07:09:35.854Z,12.77
2023-03-06T07:12:38.344Z,11.85
2023-03-06T07:15:40.560Z,15.05
2023-03-06T07:18:43.912Z,16.10
2023-03-06T07:21:46.060Z,17.17
2023-03-06T07:24:48.648Z,16.35
2023-03-06T07:27:54.143Z,18.55
2023-03-06T07:30:56.978Z,16.15
2023-03-06T07:33:59.539Z,14.80
2023-03-06T07:37:02.040Z,11.35
2023-03-06T07:40:06.223Z,12.80
2023-03-06T07:43:18.683Z,13.27
2023-03-06T07:46:22.281Z,11.38
2023-03-06T07:49:24.841Z,11.80
2023-03-06T07:52:27.045Z,12.15
2023-03-06T07:55:29.549Z,10.80
2023-03-06T07:58:33.669Z,15.55
2023-03-06T08:01:40.218Z,14.85
2023-03-06T08:04:42.842Z,11.23
2023-03-06T08:07:45.719Z,14.95
2023-03-06T08:10:49.263Z,14.95
2023-03-06T08:13:53.690Z,11.25
2023-03-06T08:16:56.786Z,11.68
2023-03-06T08:19:59.107Z,9.93
2023-03-06T08:23:01.580Z,12.93
2023-03-06T08:26:07.110Z,12.63
2023-03-06T08:29:09.976Z,11.75
2023-03-06T08:32:12.299Z,9.80
2023-03-06T08:35:14.824Z,13.10
2023-03-06T08:38:17.053Z,12.27
2023-03-06T08:41:20.524Z,12.20
2023-03-06T08:44:22.743Z,13.73
2023-03-06T08:47:25.503Z,15.45
2023-03-06T08:50:27.882Z,16.65
2023-03-06T08:53:42.094Z,12.52
2023-03-06T08:56:45.734Z,16.60
2023-03-06T08:59:48.195Z,15.57
2023-03-06T09:02:51.141Z,14.20
2023-03-06T09:05:53.663Z,13.32
2023-03-06T09:08:56.333Z,13.68
2023-03-06T09:11:58.812Z,13.75
2023-03-06T09:15:03.683Z,13.07
2023-03-06T09:18:06.223Z,14.80
2023-03-06T09:21:10.032Z,20.88
2023-03-06T09:24:12.702Z,13.20
2023-03-06T09:27:14.927Z,14.75
2023-03-06T09:30:18.890Z,18.17
2023-03-06T09:36:23.933Z,16.85
2023-03-06T09:39:26.451Z,16.77
2023-03-06T09:42:29.168Z,13.80
2023-03-06T09:45:37.047Z,14.05
2023-03-06T09:48:58.053Z,14.95
2023-03-06T09:52:39.070Z,13.40
2023-03-06T09:55:44.169Z,18.20
2023-03-06T09:58:54.024Z,13.98
2023-03-06T10:01:59.361Z,14.60
2023-03-06T10:05:06.759Z,19.00
2023-03-06T10:08:23.792Z,17.20
2023-03-06T10:11:38.358Z,14.68
2023-03-06T10:14:48.474Z,16.20
2023-03-06T10:17:51.980Z,15.85
2023-03-06T10:21:18.670Z,13.88
2023-03-06T10:24:43.299Z,14.98
2023-03-06T10:27:48.615Z,24.10
2023-03-06T10:31:03.173Z,15.05
2023-03-06T10:34:08.461Z,18.20
2023-03-06T10:37:22.226Z,16.92
2023-03-06T10:40:35.327Z,24.73
2023-03-06T10:43:45.832Z,19.12
2023-03-06T10:46:51.539Z,15.27
2023-03-06T10:50:08.045Z,18.58
2023-03-06T10:53:24.605Z,17.95
2023-03-06T10:56:35.556Z,15.95
2023-03-06T10:59:51.229Z,15.77
2023-03-06T11:03:06.532Z,15.25
2023-03-06T11:06:31.700Z,17.10
2023-03-06T11:09:34.457Z,17.75
2023-03-06T11:12:38.933Z,18.40
2023-03-06T11:16:05.309Z,15.77
2023-03-06T11:19:28.770Z,17.60
2023-03-06T11:22:31.614Z,16.45
2023-03-06T11:25:39.886Z,17.20
2023-03-06T11:28:45.932Z,14.30
2023-03-06T11:31:51.577Z,16.02
2023-03-06T11:35:04.145Z,17.10
2023-03-06T11:38:14.304Z,18.50
2023-03-06T11:41:26.108Z,19.25
2023-03-06T11:44:36.880Z,15.18
2023-03-06T11:48:14.812Z,21.75
2023-03-06T11:51:31.441Z,20.10
2023-03-06T11:54:34.290Z,13.52
2023-03-06T11:57:48.171Z,18.20
2023-03-06T12:01:00.509Z,17.12
2023-03-06T12:04:37.364Z,20.42
2023-03-06T12:07:48.575Z,13.20
2023-03-06T12:11:05.458Z,18.70
2023-03-06T12:14:40.276Z,23.23
2023-03-06T12:18:13.841Z,16.80
2023-03-06T12:21:44.751Z,17.90
2023-03-06T12:25:09.536Z,15.38
2023-03-06T12:28:24.709Z,20.80
2023-03-06T12:31:27.379Z,16.48
2023-03-06T12:34:52.504Z,15.23
2023-03-06T12:38:07.696Z,19.33
2023-03-06T12:41:35.363Z,15.50
2023-03-06T12:44:59.383Z,17.80
2023-03-06T12:48:02.121Z,17.35
2023-03-06T12:51:07.691Z,16.55
2023-03-06T12:54:12.632Z,16.00
2023-03-06T12:57:15.814Z,15.15
2023-03-06T13:00:34.078Z,15.77
2023-03-06T13:03:55.351Z,15.57
2023-03-06T13:07:19.079Z,15.80
2023-03-06T13:10:35.631Z,14.35
2023-03-06T13:13:46.353Z,15.77
2023-03-06T13:16:48.961Z,17.02
2023-03-06T13:20:13.024Z,19.00
2023-03-06T13:23:34.144Z,17.37
2023-03-06T13:26:36.368Z,17.45
2023-03-06T13:29:38.798Z,16.08
2023-03-06T13:32:41.208Z,18.08
2023-03-06T13:35:52.822Z,16.95
2023-03-06T13:39:11.807Z,18.62
2023-03-06T13:42:57.083Z,14.38
2023-03-06T13:46:19.469Z,16.23
2023-03-06T13:49:24.718Z,17.00
2023-03-06T13:52:33.571Z,20.50
2023-03-06T13:56:04.276Z,20.17
2023-03-06T13:59:35.789Z,22.00
2023-03-06T14:03:07.694Z,16.45
2023-03-06T14:06:35.049Z,15.32
2023-03-06T14:09:52.321Z,16.17
2023-03-06T14:13:02.115Z,17.40
2023-03-06T14:16:17.496Z,17.95
2023-03-06T14:19:20.830Z,19.55
2023-03-06T14:22:24.928Z,19.65
2023-03-06T14:25:31.377Z,20.45
2023-03-06T14:28:35.670Z,18.42
2023-03-06T14:31:42.736Z,17.05
2023-03-06T14:34:46.733Z,22.58
2023-03-06T14:37:55.591Z,16.77
2023-03-06T14:40:58.526Z,23.08
2023-03-06T14:44:22.224Z,20.08
2023-03-06T14:47:33.837Z,20.23
2023-03-06T14:50:36.747Z,18.87
2023-03-06T14:53:39.061Z,17.60
2023-03-06T14:56:44.045Z,20.08
2023-03-06T14:59:56.208Z,26.65
2023-03-06T15:02:59.440Z,19.23
2023-03-06T15:06:02.931Z,26.75
2023-03-06T15:09:15.858Z,16.80
2023-03-06T15:12:21.319Z,20.30
2023-03-06T15:15:26.316Z,23.95
2023-03-06T15:18:35.453Z,18.52
2023-03-06T15:21:39.067Z,20.67
2023-03-06T15:24:41.357Z,20.80
2023-03-06T15:28:03.331Z,20.02
2023-03-06T15:31:24.690Z,20.50
2023-03-06T15:34:27.599Z,20.35
2023-03-06T15:37:29.822Z,18.67
2023-03-06T15:40:32.974Z,19.48
2023-03-06T15:43:39.349Z,17.00
2023-03-06T15:46:42.186Z,21.37
2023-03-06T15:49:44.738Z,19.77
2023-03-06T15:52:48.672Z,17.45
2023-03-06T15:58:54.909Z,20.85
2023-03-06T16:01:59.554Z,23.92
2023-03-06T16:05:02.740Z,23.58
2023-03-06T16:08:05.905Z,16.45
2023-03-06T16:11:17.232Z,19.95
2023-03-06T16:14:23.566Z,15.55
2023-03-06T16:17:26.189Z,20.00
2023-03-06T16:20:29.600Z,24.42
2023-03-06T16:26:35.516Z,17.17
2023-03-06T16:29:37.978Z,18.70
2023-03-06T16:32:40.663Z,16.27
2023-03-06T16:35:46.508Z,21.70
2023-03-06T16:38:49.638Z,16.70
2023-03-06T16:41:52.751Z,18.25
2023-03-06T16:44:54.933Z,18.98
2023-03-06T16:47:58.798Z,17.42
2023-03-06T16:51:01.921Z,18.75
2023-03-06T16:54:04.621Z,22.07
2023-03-06T16:57:06.842Z,20.62
2023-03-06T17:00:11.368Z,18.83
2023-03-06T17:03:13.558Z,21.73
2023-03-06T17:06:21.730Z,15.43
2023-03-06T17:09:23.960Z,17.90
2023-03-06T17:12:26.410Z,22.48
2023-03-06T17:15:28.833Z,20.23
2023-03-06T17:18:31.641Z,20.87
2023-03-06T17:21:35.370Z,15.45
2023-03-06T17:24:38.226Z,22.33
2023-03-06T17:27:40.536Z,20.55
2023-03-06T17:30:43.052Z,17.75
2023-03-06T17:33:46.315Z,18.00
2023-03-06T17:36:48.752Z,22.42
2023-03-06T17:39:51.082Z,19.15
2023-03-06T17:42:53.769Z,18.85
2023-03-06T17:45:55.919Z,18.55
2023-03-06T17:48:58.376Z,20.17
2023-03-06T17:52:02.826Z,18.77
2023-03-06T17:55:06.751Z,18.33
2023-03-06T17:58:11.387Z,19.65
2023-03-06T18:01:18.864Z,19.25
2023-03-06T18:04:21.345Z,21.23
2023-03-06T18:07:24.034Z,22.83
2023-03-06T18:10:26.552Z,21.92
2023-03-06T18:13:28.739Z,18.05
2023-03-06T18:16:31.708Z,23.77
2023-03-06T18:19:33.983Z,19.00
2023-03-06T18:22:36.425Z,18.35
2023-03-06T18:25:38.623Z,19.55
2023-03-06T18:28:47.518Z,20.77
2023-03-06T18:31:50.354Z,24.05
2023-03-06T18:34:55.032Z,23.48
2023-03-06T18:37:57.205Z,18.50
2023-03-06T18:40:59.717Z,19.55
2023-03-06T18:44:02.506Z,20.23
2023-03-06T18:47:05.179Z,18.62
2023-03-06T18:50:07.724Z,17.37
2023-03-06T18:53:10.164Z,20.53
2023-03-06T18:56:21.338Z,19.55
2023-03-06T18:59:23.892Z,23.60
2023-03-06T19:02:26.288Z,19.77
2023-03-06T19:05:28.849Z,19.90
2023-03-06T19:08:31.045Z,21.50
2023-03-06T19:11:34.128Z,25.05
2023-03-06T19:14:36.700Z,25.60
2023-03-06T19:17:39.269Z,20.62
2023-03-06T19:20:42.198Z,23.75
2023-03-06T19:23:45.092Z,21.33
2023-03-06T19:26:47.272Z,19.77
2023-03-06T19:29:49.743Z,20.73
2023-03-06T19:32:53.442Z,21.77
2023-03-06T19:35:55.985Z,20.12
2023-03-06T19:38:59.963Z,18.85
2023-03-06T19:42:04.562Z,17.70
2023-03-06T19:45:07.719Z,22.40
2023-03-06T19:48:12.368Z,23.02
2023-03-06T19:51:14.601Z,20.60
2023-03-06T19:54:17.398Z,21.75
2023-03-06T19:57:20.256Z,19.70
2023-03-06T20:00:22.734Z,19.58
2023-03-06T20:03:25.220Z,22.62
2023-03-06T20:06:33.379Z,19.40
2023-03-06T20:09:35.903Z,24.58
2023-03-06T20:12:38.567Z,23.48
2023-03-06T20:15:41.078Z,24.48
2023-03-06T20:18:43.436Z,22.05
2023-03-06T20:21:45.945Z,30.77
2023-03-06T20:24:48.145Z,20.92
2023-03-06T20:27:50.586Z,24.25
2023-03-06T20:30:52.775Z,29.23
2023-03-06T20:33:58.355Z,18.87
2023-03-06T20:37:01.010Z,24.50
2023-03-06T20:40:04.351Z,25.30
2023-03-06T20:43:07.318Z,24.42
2023-03-06T20:46:11.081Z,22.10
2023-03-06T20:49:14.478Z,19.92
2023-03-06T20:55:18.901Z,25.17
2023-03-06T20:58:23.247Z,25.15
2023-03-06T21:01:38.401Z,21.73
2023-03-06T21:04:41.119Z,26.87
2023-03-06T21:07:43.417Z,24.45
2023-03-06T21:10:46.731Z,18.87
2023-03-06T21:13:48.966Z,24.67
2023-03-06T21:16:51.460Z,22.90
2023-03-06T21:19:53.720Z,22.98
2023-03-06T21:22:56.317Z,21.42
2023-03-06T21:25:58.529Z,21.80
2023-03-06T21:29:01.917Z,18.87
2023-03-06T21:32:04.549Z,21.83
2023-03-06T21:35:07.105Z,23.67
2023-03-06T21:38:09.615Z,24.27
2023-03-06T21:41:17.517Z,20.23
2023-03-06T21:44:19.830Z,22.20
2023-03-06T21:47:22.259Z,21.73
2023-03-06T21:50:25.632Z,23.30
2023-03-06T21:56:30.172Z,21.42
2023-03-06T21:59:32.664Z,20.33
2023-03-06T22:02:35.480Z,23.33
2023-03-06T22:05:37.948Z,28.12
2023-03-06T22:08:41.145Z,22.50
2023-03-06T22:11:43.609Z,20.75
2023-03-06T22:14:46.079Z,24.40
2023-03-06T22:17:48.615Z,24.70
2023-03-06T22:20:52.127Z,26.25
2023-03-06T22:26:59.480Z,20.98
2023-03-06T22:30:01.972Z,21.55
2023-03-06T22:33:04.341Z,25.83
2023-03-06T22:36:09.974Z,19.67
2023-03-06T22:39:13.346Z,24.40
2023-03-06T22:45:17.707Z,17.33
2023-03-06T22:48:20.943Z,18.45
2023-03-06T22:51:23.126Z,26.85
2023-03-06T22:54:25.899Z,20.60
2023-03-06T22:57:28.067Z,26.83
2023-03-06T23:00:30.488Z,20.85
2023-03-06T23:03:32.615Z,26.23
2023-03-06T23:06:37.592Z,32.25
2023-03-06T23:09:39.739Z,32.60
2023-03-06T23:13:00.489Z,26.20
2023-03-06T23:16:21.396Z,30.40
2023-03-06T23:19:42.278Z,36.95
2023-03-06T23:23:03.188Z,28.85
2023-03-06T23:26:19.332Z,30.52
2023-03-06T23:29:22.373Z,31.55
2023-03-06T23:32:24.826Z,30.03
2023-03-06T23:35:27.374Z,29.20
2023-03-06T23:38:30.078Z,31.12
2023-03-06T23:41:32.645Z,31.27
2023-03-06T23:44:35.679Z,27.42
2023-03-06T23:47:38.128Z,28.98
2023-03-06T23:50:41.008Z,30.08
2023-03-06T23:53:45.385Z,27.27
2023-03-06T23:56:47.555Z,27.05
2023-03-06T23:59:50.128Z,29.23
